createdAt,value
2023-03-05T00:12:17.771Z,7.67
2023-03-05T00:24:58.794Z,7.37
2023-03-05T00:25:58.645Z,7.61
2023-03-05T00:26:58.399Z,7.66
2023-03-05T00:27:58.375Z,7.62
2023-03-05T00:30:18.507Z,7.58
2023-03-05T00:32:46.785Z,7.55
2023-03-05T00:33:46.431Z,7.77
2023-03-05T00:41:35.233Z,7.82
2023-03-05T00:42:34.884Z,8.01
2023-03-05T00:43:35.359Z,8.06
2023-03-05T00:44:34.726Z,8.13
2023-03-05T01:16:34.483Z,8.14
2023-03-05T01:21:10.535Z,8.15
2023-03-05T02:02:31.179Z,7.96
2023-03-05T02:03:34.575Z,7.90
2023-03-05T02:04:34.450Z,7.97
2023-03-05T02:05:34.412Z,8.03
2023-03-05T02:06:34.420Z,8.01
2023-03-05T02:07:34.377Z,8.03
2023-03-05T02:08:34.441Z,8.03
2023-03-05T02:09:49.873Z,8.00
2023-03-05T02:10:34.420Z,7.92
2023-03-05T02:11:34.514Z,7.90
2023-03-05T02:12:34.346Z,7.95
2023-03-05T02:40:36.972Z,7.56
2023-03-05T02:53:26.592Z,7.42
2023-03-05T02:54:26.729Z,7.49
2023-03-05T02:55:26.556Z,7.45
2023-03-05T02:56:26.549Z,7.45
2023-03-05T02:57:26.520Z,7.50
2023-03-05T02:58:26.548Z,7.45
2023-03-05T02:59:26.540Z,7.46
2023-03-05T03:00:26.484Z,7.47
2023-03-05T03:01:26.499Z,7.58
2023-03-05T03:02:26.516Z,7.56
2023-03-05T03:03:26.543Z,7.55
2023-03-05T03:04:26.500Z,7.57
2023-03-05T03:05:26.434Z,7.54
2023-03-05T03:06:26.435Z,7.58
2023-03-05T03:07:26.472Z,7.60
2023-03-05T03:08:26.427Z,7.63
2023-03-05T03:12:26.418Z,7.65
2023-03-05T07:04:47.493Z,7.44
2023-03-05T07:05:47.507Z,7.50
2023-03-05T07:06:47.514Z,7.61
2023-03-05T07:07:47.486Z,7.72
2023-03-05T07:08:47.546Z,7.76
2023-03-05T07:09:47.425Z,7.73
2023-03-05T07:10:47.438Z,7.72
2023-03-05T07:11:47.421Z,7.74
2023-03-05T07:12:47.384Z,7.81
2023-03-05T07:13:47.452Z,7.78
2023-03-05T07:14:47.394Z,7.88
2023-03-05T07:15:47.375Z,7.96
2023-03-05T07:16:47.373Z,8.08
2023-03-05T07:17:47.394Z,8.09
2023-03-05T07:18:47.350Z,8.12
2023-03-05T07:19:47.358Z,8.06
2023-03-05T07:24:07.426Z,8.14
2023-03-05T07:25:07.369Z,8.24
2023-03-05T07:26:07.330Z,8.42
2023-03-05T07:28:07.328Z,8.58
2023-03-05T07:29:07.525Z,8.70
2023-03-05T07:30:07.310Z,8.78
2023-03-05T07:31:07.350Z,8.84
2023-03-05T07:32:07.309Z,8.92
2023-03-05T07:33:07.236Z,8.96
2023-03-05T07:34:07.248Z,9.03
2023-03-05T07:35:07.245Z,9.06
2023-03-05T07:36:07.249Z,9.12
2023-03-05T07:37:07.252Z,9.16
2023-03-05T07:38:07.197Z,9.32
2023-03-05T07:39:07.261Z,9.40
2023-03-05T07:43:47.656Z,9.54
2023-03-05T07:44:47.204Z,9.60
2023-03-05T07:48:09.613Z,9.41
2023-03-05T07:49:07.292Z,9.75
2023-03-05T07:50:05.893Z,9.91
2023-03-05T08:28:34.439Z,11.71
2023-03-05T08:33:35.259Z,13.17
2023-03-05T08:34:33.372Z,13.60
2023-03-05T08:35:33.607Z,13.82
2023-03-05T08:36:33.333Z,13.98
2023-03-05T08:37:33.341Z,14.47
2023-03-05T08:38:33.296Z,14.98
2023-03-05T08:39:33.296Z,15.24
2023-03-05T08:40:33.296Z,15.32
2023-03-05T08:41:33.354Z,15.24
2023-03-05T11:07:15.127Z,22.75
2023-03-05T11:08:14.875Z,22.82
2023-03-05T11:09:15.129Z,22.81
2023-03-05T11:10:14.893Z,22.98
2023-03-05T11:11:14.776Z,23.14
2023-03-05T11:12:14.720Z,23.18
2023-03-05T11:13:14.789Z,23.37
2023-03-05T11:14:14.730Z,23.22
2023-03-05T11:15:14.727Z,23.27
2023-03-05T11:16:14.732Z,23.26
2023-03-05T11:17:14.694Z,23.21
2023-03-05T11:18:14.671Z,22.93
2023-03-05T11:19:14.671Z,23.09
2023-03-05T11:20:14.656Z,23.21
2023-03-05T11:21:14.669Z,22.93
2023-03-05T11:22:14.646Z,22.41
2023-03-05T11:23:14.657Z,22.40
2023-03-05T11:24:14.622Z,22.55
2023-03-05T11:25:14.611Z,22.80
2023-03-05T11:26:14.614Z,22.82
2023-03-05T11:32:15.790Z,22.77
2023-03-05T11:33:15.763Z,22.90
2023-03-05T11:34:15.597Z,22.88
2023-03-05T11:35:15.558Z,22.66
2023-03-05T11:46:35.085Z,22.15
2023-03-05T12:03:14.243Z,22.31
2023-03-05T12:04:14.113Z,22.25
2023-03-05T12:05:13.767Z,22.27
2023-03-05T12:06:13.699Z,21.78
2023-03-05T12:07:13.652Z,21.82
2023-03-05T12:08:13.728Z,21.96
2023-03-05T12:09:13.709Z,21.92
2023-03-05T12:10:13.695Z,21.95
2023-03-05T12:11:13.701Z,22.09
2023-03-05T12:12:13.878Z,22.31
2023-03-05T12:13:13.657Z,22.29
2023-03-05T12:14:13.622Z,22.41
2023-03-05T12:15:13.671Z,22.43
2023-03-05T12:16:13.719Z,22.34
2023-03-05T12:17:13.624Z,22.43
2023-03-05T12:18:13.665Z,22.33
2023-03-05T12:19:13.647Z,22.22
2023-03-05T12:20:13.618Z,22.13
2023-03-05T12:21:13.602Z,22.09
2023-03-05T12:22:13.557Z,21.97
2023-03-05T12:23:13.584Z,22.13
2023-03-05T12:24:13.759Z,22.14
2023-03-05T12:25:13.671Z,22.12
2023-03-05T12:26:13.891Z,22.18
2023-03-05T12:35:44.065Z,21.00
2023-03-05T12:51:20.504Z,21.12
2023-03-05T12:52:22.293Z,21.41
2023-03-05T12:53:20.871Z,21.54
2023-03-05T13:08:16.175Z,21.01
2023-03-05T13:36:22.225Z,20.01
2023-03-05T13:38:25.700Z,19.82
2023-03-05T13:41:44.764Z,19.98
2023-03-05T13:42:44.845Z,20.06
2023-03-05T13:43:44.760Z,20.07
2023-03-05T13:44:44.918Z,20.30
2023-03-05T13:45:44.720Z,20.32
2023-03-05T13:46:44.632Z,20.39
2023-03-05T13:47:44.642Z,20.45
2023-03-05T13:48:44.605Z,20.38
2023-03-05T13:49:44.601Z,20.46
2023-03-05T13:50:44.706Z,20.41
2023-03-05T13:51:44.631Z,19.98
2023-03-05T13:52:44.591Z,19.80
2023-03-05T13:53:44.632Z,19.63
2023-03-05T13:54:44.577Z,19.48
2023-03-05T13:55:44.589Z,19.60
2023-03-05T13:56:44.539Z,19.81
2023-03-05T13:57:44.621Z,19.92
2023-03-05T13:58:44.573Z,19.67
2023-03-05T13:59:44.729Z,19.57
2023-03-05T14:00:44.557Z,19.61
2023-03-05T14:01:44.521Z,19.38
2023-03-05T14:25:23.561Z,17.52
2023-03-05T14:26:23.683Z,17.37
2023-03-05T14:27:23.202Z,17.29
2023-03-05T14:28:23.257Z,17.35
2023-03-05T14:29:23.184Z,17.31
2023-03-05T14:30:23.202Z,17.10
2023-03-05T14:31:23.278Z,16.88
2023-03-05T14:32:23.212Z,16.84
2023-03-05T14:33:23.428Z,16.77
2023-03-05T14:34:23.546Z,16.56
2023-03-05T14:35:23.205Z,16.27
2023-03-05T14:36:23.168Z,16.39
2023-03-05T14:37:23.154Z,16.41
2023-03-05T14:38:23.326Z,16.45
2023-03-05T14:39:23.124Z,16.46
2023-03-05T14:40:23.122Z,16.58
2023-03-05T14:41:23.192Z,16.58
2023-03-05T14:42:23.128Z,16.60
2023-03-05T14:43:23.124Z,16.38
2023-03-05T14:44:23.087Z,16.37
2023-03-05T14:45:23.115Z,16.43
2023-03-05T14:46:23.116Z,16.34
2023-03-05T14:47:23.072Z,16.30
2023-03-05T14:48:23.077Z,16.32
2023-03-05T14:49:23.064Z,16.30
2023-03-05T14:50:23.102Z,15.98
2023-03-05T14:51:23.056Z,16.04
2023-03-05T14:52:23.012Z,16.06
2023-03-05T14:53:23.412Z,15.89
2023-03-05T14:54:23.023Z,15.70
2023-03-05T14:55:23.038Z,15.65
2023-03-05T14:56:22.993Z,15.66
2023-03-05T14:57:22.989Z,15.68
2023-03-05T14:58:23.031Z,15.81
2023-03-05T15:00:43.052Z,15.79
2023-03-05T15:01:43.304Z,15.77
2023-03-05T15:02:43.067Z,15.82
2023-03-05T15:03:42.934Z,15.84
2023-03-05T15:04:42.962Z,15.86
2023-03-05T15:05:43.259Z,15.84
2023-03-05T15:06:43.243Z,15.58
2023-03-05T15:07:43.323Z,15.27
2023-03-05T15:08:42.936Z,15.18
2023-03-05T15:09:42.865Z,15.06
2023-03-05T15:10:42.953Z,14.99
2023-03-05T15:11:42.860Z,15.02
2023-03-05T15:12:42.836Z,15.07
2023-03-05T15:13:42.833Z,15.12
2023-03-05T15:14:42.979Z,15.12
2023-03-05T15:15:42.854Z,14.99
2023-03-05T15:16:42.825Z,14.97
2023-03-05T15:17:42.810Z,14.73
2023-03-05T15:18:42.874Z,14.71
2023-03-05T15:19:42.875Z,14.73
2023-03-05T15:20:42.782Z,14.73
2023-03-05T15:21:42.864Z,14.73
2023-03-05T15:22:42.892Z,14.74
2023-03-05T15:23:42.892Z,14.77
2023-03-05T15:24:42.946Z,14.61
2023-03-05T15:25:42.997Z,14.57
2023-03-05T15:26:43.105Z,14.49
2023-03-05T15:27:43.094Z,14.46
2023-03-05T15:28:43.144Z,14.29
2023-03-05T15:29:43.142Z,14.19
2023-03-05T15:30:43.181Z,14.15
2023-03-05T15:31:43.212Z,14.25
2023-03-05T15:32:43.265Z,14.28
2023-03-05T15:33:43.370Z,14.31
2023-03-05T15:34:43.311Z,14.21
2023-03-05T15:35:43.329Z,14.20
2023-03-05T15:36:43.389Z,14.24
2023-03-05T15:40:22.911Z,13.95
2023-03-05T15:41:23.134Z,13.96
2023-03-05T15:42:22.790Z,13.97
2023-03-05T15:43:22.823Z,13.96
2023-03-05T15:44:22.834Z,14.00
2023-03-05T15:45:22.806Z,13.94
2023-03-05T15:46:22.870Z,13.87
2023-03-05T15:47:22.813Z,13.72
2023-03-05T15:48:22.766Z,13.77
2023-03-05T15:49:22.792Z,13.61
2023-03-05T15:50:22.747Z,13.62
2023-03-05T15:51:22.772Z,13.58
2023-03-05T15:52:22.755Z,13.57
2023-03-05T15:53:23.145Z,13.53
2023-03-05T15:54:22.736Z,13.46
2023-03-05T15:55:22.721Z,13.47
2023-03-05T15:56:22.699Z,13.50
2023-03-05T15:57:22.707Z,13.36
2023-03-05T15:58:22.737Z,13.24
2023-03-05T15:59:22.682Z,13.25
2023-03-05T16:00:23.809Z,13.28
2023-03-05T16:01:22.689Z,13.28
2023-03-05T16:02:22.674Z,13.27
2023-03-05T16:03:22.665Z,13.24
2023-03-05T16:04:22.683Z,13.18
2023-03-05T16:05:22.688Z,13.17
2023-03-05T16:06:22.764Z,13.07
2023-03-05T16:07:23.802Z,13.05
2023-03-05T16:08:22.658Z,12.85
2023-03-05T16:09:22.668Z,12.92
2023-03-05T16:10:22.616Z,12.79
2023-03-05T16:11:22.688Z,12.83
2023-03-05T16:12:22.820Z,12.87
2023-03-05T16:13:22.653Z,12.93
2023-03-05T16:14:22.696Z,12.94
2023-03-05T16:15:22.611Z,12.94
2023-03-05T16:16:22.630Z,12.96
2023-03-05T16:17:22.572Z,12.95
2023-03-05T16:18:22.597Z,12.85
2023-03-05T16:19:22.594Z,12.81
2023-03-05T16:20:22.577Z,12.86
2023-03-05T16:21:22.534Z,12.84
2023-03-05T16:22:22.538Z,12.76
2023-03-05T16:23:22.649Z,12.64
2023-03-05T16:24:22.563Z,12.54
2023-03-05T16:25:22.538Z,12.38
2023-03-05T16:26:22.547Z,12.10
2023-03-05T16:27:22.532Z,11.99
2023-03-05T16:28:22.654Z,11.95
2023-03-05T16:29:22.487Z,12.01
2023-03-05T16:30:22.510Z,12.04
2023-03-05T16:31:22.492Z,12.05
2023-03-05T16:32:22.522Z,12.05
2023-03-05T16:33:22.485Z,12.04
2023-03-05T16:34:22.477Z,12.01
2023-03-05T16:35:22.548Z,11.94
2023-03-05T16:36:22.551Z,11.85
2023-03-05T16:37:22.537Z,11.64
2023-03-05T16:38:22.578Z,11.72
2023-03-05T16:39:22.600Z,11.78
2023-03-05T16:40:22.702Z,11.86
2023-03-05T16:41:24.164Z,11.96
2023-03-05T16:42:22.746Z,12.05
2023-03-05T16:43:22.851Z,12.06
2023-03-05T16:44:23.668Z,12.02
2023-03-05T16:59:29.907Z,11.18
2023-03-05T17:01:50.118Z,11.46
2023-03-05T17:05:29.099Z,11.35
2023-03-05T17:06:29.190Z,11.36
2023-03-05T17:07:29.001Z,11.44
2023-03-05T17:08:28.994Z,11.47
2023-03-05T17:09:28.970Z,11.49
2023-03-05T17:10:28.962Z,11.52
2023-03-05T17:11:28.980Z,11.55
2023-03-05T17:12:28.966Z,11.45
2023-03-05T17:15:30.413Z,11.19
2023-03-05T17:16:30.815Z,11.31
2023-03-05T17:17:35.380Z,11.32
2023-03-05T17:18:31.309Z,11.29
2023-03-05T17:20:50.284Z,11.06
2023-03-05T17:21:50.087Z,11.16
2023-03-05T17:22:50.119Z,11.20
2023-03-05T17:29:30.062Z,11.06
2023-03-05T17:30:29.853Z,10.96
2023-03-05T17:31:29.809Z,10.96
2023-03-05T17:32:30.678Z,10.93
2023-03-05T17:33:29.848Z,10.93
2023-03-05T17:34:36.153Z,10.93
2023-03-05T17:35:30.948Z,10.92
2023-03-05T17:37:50.561Z,10.82
2023-03-05T20:47:27.067Z,8.54
2023-03-05T20:50:01.827Z,8.25
2023-03-05T20:53:09.304Z,8.19
2023-03-05T20:59:10.119Z,8.17
2023-03-05T21:16:40.070Z,7.92
2023-03-05T21:17:39.975Z,7.97
2023-03-05T21:20:00.415Z,7.98
2023-03-05T21:21:00.163Z,8.00
2023-03-05T21:22:00.297Z,7.95
2023-03-05T21:23:00.110Z,7.94
2023-03-05T22:25:06.027Z,6.99
2023-03-05T22:27:30.923Z,6.87
2023-03-05T22:31:09.947Z,6.98
2023-03-05T22:32:10.363Z,6.97
2023-03-05T22:33:09.760Z,7.04
2023-03-05T22:34:10.004Z,7.11
2023-03-05T22:35:09.828Z,7.11
2023-03-05T22:36:09.866Z,7.08
2023-03-05T22:37:10.065Z,7.04
2023-03-05T22:39:29.721Z,7.03
2023-03-05T22:40:29.764Z,7.08
2023-03-05T22:41:33.737Z,7.07
2023-03-05T22:42:30.520Z,7.11
